LIMW METAR and TAF | Updated Today

LIMW METAR

Aosta Airport

Observation time: 22 min. ago

LIMW 291220Z AUTO 10020G30KT 9999 NCD 21/07 Q1004

Need help? Read our tutorial on how to read METARs or read the parsed version below.

Aosta Airport (LIMW) METAR

  • Weather conditions on Sun, 29 May 2022 12:20:00 +0000 (22 min. ago):
  • Present conditions: Dry
  • Clouds: Nil cloud detected
  • Visibility: Greater than 10 km
  • Wind: 100 degrees at 20 knots
  • Temperature: 21 celsius
  • Dew point: 7 celsius
  • Pressure: 1004 millibars
  • Remarks: None


Useful to know...

LIMW TAF

Aosta Airport

TAF LIMW 291100Z 2912/2921 09014KT 9999 SCT050
Observation time: 1:42 hr. ago
Need help? Read our tutorial on how to read TAFs or read the parsed version below.

Parsed version of TAF for Aosta Airport (LIMW)

  • From 29 May at 12:00 UTC, to day 29 of the month at 21:00 UTC
  • Clouds: Scattered at 1524 meters
  • Visibility: Greater than 10 km
  • Wind: 90 degrees at 14